Time;durP1;ratioP1;P1;durP2;ratioP2;P2;SDS_P1;SDS_P2;PMS_P1;PMS_P2;Temp;Humidity;BMP_temperature;BMP_pressure;BME280_temperature;BME280_humidity;BME280_pressure;Samples;Min_cycle;Max_cycle;Signal;HPM_P1;HPM_P2
2022/11/25 00:01:15;;;;;;;63.78;27.00;;;;;;;;;;8226024;28;20090;-87
2022/11/25 00:05:18;;;;;;;59.33;22.30;;;;;;;;;;8235134;28;20126;-88
2022/11/25 00:09:21;;;;;;;71.38;26.67;;;;;;;;;;8231581;28;20046;-87
2022/11/25 00:13:23;;;;;;;44.85;19.20;;;;;;;;;;8257728;28;20049;-87
2022/11/25 00:17:27;;;;;;;47.60;20.23;;;;;;;;;;8263018;28;20059;-87
2022/11/25 00:21:33;;;;;;;54.35;20.40;;;;;;;;;;8262696;28;20487;-85
2022/11/25 00:25:36;;;;;;;44.88;17.08;;;;;;;;;;8263595;28;20042;-87
2022/11/25 00:29:38;;;;;;;48.92;18.33;;;;;;;;;;8266324;28;20038;-86
2022/11/25 00:33:42;;;;;;;52.70;20.27;;;;;;;;;;8268449;28;20554;-86
2022/11/25 00:37:45;;;;;;;63.30;20.90;;;;;;;;;;8268432;28;20527;-86
2022/11/25 00:46:07;;;;;;;50.45;18.98;;;;;;;;;;8269809;28;20101;-87
2022/11/25 00:50:11;;;;;;;54.13;20.42;;;;;;;;;;8267214;28;20162;-87
2022/11/25 00:54:14;;;;;;;56.08;20.15;;;;;;;;;;8269249;28;20446;-88
2022/11/25 00:58:17;;;;;;;57.40;20.65;;;;;;;;;;8263397;28;20049;-87
2022/11/25 01:02:22;;;;;;;62.10;22.08;;;;;;;;;;8264757;28;20059;-88
2022/11/25 01:06:26;;;;;;;52.42;20.83;;;;;;;;;;8242735;28;20046;-88
2022/11/25 01:10:29;;;;;;;55.22;20.02;;;;;;;;;;8269117;28;20405;-86
2022/11/25 01:14:31;;;;;;;56.35;20.35;;;;;;;;;;8257202;28;20043;-86
2022/11/25 01:18:37;;;;;;;62.92;20.70;;;;;;;;;;8265539;28;20113;-87
2022/11/25 01:22:41;;;;;;;73.90;19.70;;;;;;;;;;8269634;28;20054;-86
2022/11/25 01:26:45;;;;;;;67.82;21.92;;;;;;;;;;8267072;28;20042;-88
2022/11/25 01:30:47;;;;;;;61.90;19.00;;;;;;;;;;8259435;28;20046;-87
2022/11/25 01:34:50;;;;;;;75.00;20.60;;;;;;;;;;8268164;28;20494;-88
2022/11/25 01:38:55;;;;;;;56.65;20.63;;;;;;;;;;8265581;28;20413;-87
2022/11/25 01:43:00;;;;;;;64.75;20.52;;;;;;;;;;8260663;28;20043;-86
2022/11/25 01:47:09;;;;;;;73.38;23.08;;;;;;;;;;8257105;28;20088;-87
2022/11/25 01:51:20;;;;;;;77.60;21.60;;;;;;;;;;8266862;28;20124;-87
2022/11/25 01:55:27;;;;;;;77.25;20.33;;;;;;;;;;8248560;28;20125;-87
2022/11/25 01:59:34;;;;;;;64.43;19.20;;;;;;;;;;8266525;28;20494;-87
2022/11/25 02:03:41;;;;;;;82.00;23.08;;;;;;;;;;8267343;28;20148;-84
2022/11/25 02:07:47;;;;;;;71.93;20.30;;;;;;;;;;8251704;28;20054;-86
2022/11/25 02:11:52;;;;;;;62.58;19.52;;;;;;;;;;8266791;28;20395;-87
2022/11/25 02:15:54;;;;;;;78.50;22.70;;;;;;;;;;8267442;28;20042;-87
2022/11/25 02:20:02;;;;;;;95.30;22.38;;;;;;;;;;8267524;28;20474;-87
2022/11/25 02:24:15;;;;;;;101.78;25.27;;;;;;;;;;8267179;28;20045;-87
2022/11/25 02:28:21;;;;;;;109.90;23.98;;;;;;;;;;8267219;28;20053;-87
2022/11/25 02:32:24;;;;;;;87.93;23.05;;;;;;;;;;8267676;28;20541;-87
2022/11/25 02:36:26;;;;;;;79.40;22.65;;;;;;;;;;8266795;28;20476;-85
2022/11/25 02:40:32;;;;;;;90.03;23.27;;;;;;;;;;8266682;28;20471;-86
2022/11/25 02:44:38;;;;;;;119.35;25.17;;;;;;;;;;8266935;28;20044;-84
2022/11/25 02:48:42;;;;;;;98.47;21.77;;;;;;;;;;8266652;28;20466;-86
2022/11/25 02:52:45;;;;;;;109.07;22.98;;;;;;;;;;8261875;28;20486;-88
2022/11/25 02:56:47;;;;;;;125.38;23.88;;;;;;;;;;8252968;28;20053;-87
2022/11/25 03:00:53;;;;;;;154.23;26.42;;;;;;;;;;8265057;28;20061;-87
2022/11/25 03:04:56;;;;;;;145.75;25.45;;;;;;;;;;8265782;28;20054;-87
2022/11/25 03:08:58;;;;;;;101.70;23.17;;;;;;;;;;8249317;28;20450;-85
2022/11/25 03:13:01;;;;;;;115.40;22.98;;;;;;;;;;8263905;28;20061;-87
2022/11/25 03:17:05;;;;;;;110.93;24.23;;;;;;;;;;8265500;28;20096;-87
2022/11/25 03:21:08;;;;;;;171.82;26.10;;;;;;;;;;8265546;28;20042;-86
2022/11/25 03:25:12;;;;;;;104.35;23.65;;;;;;;;;;8265451;28;20398;-86
2022/11/25 03:29:15;;;;;;;89.75;23.48;;;;;;;;;;8265458;28;20046;-87
2022/11/25 03:33:19;;;;;;;86.80;22.38;;;;;;;;;;8265111;28;20057;-87
2022/11/25 03:37:21;;;;;;;320.65;32.70;;;;;;;;;;8265108;28;20645;-87
2022/11/25 03:41:23;;;;;;;107.68;26.17;;;;;;;;;;8265158;28;20050;-86
2022/11/25 03:45:26;;;;;;;81.63;21.52;;;;;;;;;;8264882;28;20046;-85
2022/11/25 03:49:30;;;;;;;102.97;24.35;;;;;;;;;;8264198;28;20047;-86
2022/11/25 03:53:33;;;;;;;147.75;28.63;;;;;;;;;;8264841;28;20053;-86
2022/11/25 03:57:35;;;;;;;139.00;30.25;;;;;;;;;;8264505;28;20379;-85
2022/11/25 04:01:38;;;;;;;126.43;28.27;;;;;;;;;;8264121;28;20049;-85
2022/11/25 04:05:42;;;;;;;103.25;25.40;;;;;;;;;;8264687;28;20058;-85
2022/11/25 04:09:44;;;;;;;138.93;31.23;;;;;;;;;;8264502;28;20375;-86
2022/11/25 04:13:47;;;;;;;117.88;27.70;;;;;;;;;;8264533;28;20125;-86
2022/11/25 04:17:49;;;;;;;96.93;26.20;;;;;;;;;;8264558;28;20046;-85
2022/11/25 04:21:53;;;;;;;123.40;32.60;;;;;;;;;;8264321;28;20397;-85
2022/11/25 04:25:56;;;;;;;150.05;37.40;;;;;;;;;;8263279;28;20046;-86
2022/11/25 04:29:58;;;;;;;142.65;38.17;;;;;;;;;;8264617;28;20486;-86
2022/11/25 04:34:03;;;;;;;118.68;35.22;;;;;;;;;;8264390;28;20051;-85
2022/11/25 04:38:07;;;;;;;138.40;31.48;;;;;;;;;;8263972;28;20074;-85
2022/11/25 04:46:34;;;;;;;131.35;31.65;;;;;;;;;;8247596;28;20058;-86
2022/11/25 04:50:37;;;;;;;127.20;29.50;;;;;;;;;;8262522;28;20039;-86
2022/11/25 04:54:41;;;;;;;103.43;24.58;;;;;;;;;;8259968;28;20053;-88
2022/11/25 05:03:04;;;;;;;117.70;28.17;;;;;;;;;;8263608;28;20054;-84
2022/11/25 05:07:06;;;;;;;98.78;26.10;;;;;;;;;;8263617;28;20422;-86
2022/11/25 05:11:10;;;;;;;106.57;26.90;;;;;;;;;;8264807;28;20050;-87
2022/11/25 05:15:13;;;;;;;134.65;28.55;;;;;;;;;;8267746;28;20108;-86
2022/11/25 05:19:15;;;;;;;150.88;36.53;;;;;;;;;;8252427;28;20108;-84
2022/11/25 05:23:18;;;;;;;139.10;37.05;;;;;;;;;;8269674;28;20054;-85
2022/11/25 05:27:22;;;;;;;128.30;34.15;;;;;;;;;;8269276;28;20467;-86
2022/11/25 05:31:24;;;;;;;134.48;35.17;;;;;;;;;;8269190;28;20053;-85
2022/11/25 05:35:27;;;;;;;144.20;41.97;;;;;;;;;;8267815;28;20545;-85
2022/11/25 05:39:30;;;;;;;134.60;36.63;;;;;;;;;;8264379;28;20505;-87
2022/11/25 05:43:34;;;;;;;130.90;32.33;;;;;;;;;;8269119;28;20050;-86
2022/11/25 05:47:37;;;;;;;160.20;39.30;;;;;;;;;;8268081;28;20050;-86
2022/11/25 05:51:39;;;;;;;126.03;32.70;;;;;;;;;;8263871;28;20399;-86
2022/11/25 05:55:42;;;;;;;120.35;30.48;;;;;;;;;;8266524;28;20102;-85
2022/11/25 05:59:48;;;;;;;173.65;44.67;;;;;;;;;;8268117;28;20046;-85
2022/11/25 06:03:51;;;;;;;110.00;26.70;;;;;;;;;;8267983;28;20061;-85
2022/11/25 06:07:53;;;;;;;107.85;27.17;;;;;;;;;;8267839;28;20054;-86
2022/11/25 06:11:56;;;;;;;117.50;26.25;;;;;;;;;;8267916;28;20038;-85
2022/11/25 06:15:59;;;;;;;116.65;26.67;;;;;;;;;;8264276;28;20128;-85
2022/11/25 06:20:02;;;;;;;102.70;25.45;;;;;;;;;;8265474;28;20053;-85
2022/11/25 06:24:05;;;;;;;107.57;28.58;;;;;;;;;;8267118;28;20054;-85
2022/11/25 06:28:07;;;;;;;132.38;34.25;;;;;;;;;;8267319;28;20042;-85
2022/11/25 06:32:12;;;;;;;133.80;33.17;;;;;;;;;;8266784;28;20434;-92
2022/11/25 06:36:16;;;;;;;138.23;33.35;;;;;;;;;;8269279;28;20510;-87
2022/11/25 06:40:19;;;;;;;104.93;26.13;;;;;;;;;;8250784;28;20513;-89
2022/11/25 06:44:22;;;;;;;111.22;26.23;;;;;;;;;;8255372;28;20386;-89
2022/11/25 06:48:28;;;;;;;128.10;27.83;;;;;;;;;;8271359;28;20498;-89
2022/11/25 06:52:30;;;;;;;111.72;27.85;;;;;;;;;;8267393;28;20108;-86
2022/11/25 06:56:33;;;;;;;120.43;30.98;;;;;;;;;;8261452;28;20545;-90
2022/11/25 07:00:35;;;;;;;130.85;32.55;;;;;;;;;;8259442;28;20050;-88
2022/11/25 07:04:39;;;;;;;143.27;36.47;;;;;;;;;;8253365;28;20547;-89
2022/11/25 07:08:43;;;;;;;129.95;32.70;;;;;;;;;;8267129;28;20057;-86
2022/11/25 07:12:46;;;;;;;132.43;28.70;;;;;;;;;;8267154;28;20097;-87
2022/11/25 07:16:48;;;;;;;130.05;30.02;;;;;;;;;;8266647;28;20046;-88
2022/11/25 07:20:52;;;;;;;116.25;28.75;;;;;;;;;;8267042;28;20042;-86
2022/11/25 07:24:55;;;;;;;119.63;28.60;;;;;;;;;;8249086;28;20421;-87
2022/11/25 07:28:59;;;;;;;115.82;26.65;;;;;;;;;;8266227;28;20050;-89
2022/11/25 07:33:02;;;;;;;123.18;27.75;;;;;;;;;;8266581;28;20046;-90
2022/11/25 07:37:06;;;;;;;107.10;25.80;;;;;;;;;;8265824;28;20046;-88
2022/11/25 07:41:12;;;;;;;111.13;26.65;;;;;;;;;;8266631;28;20121;-89
2022/11/25 07:45:14;;;;;;;106.93;25.17;;;;;;;;;;8265932;28;20046;-89
2022/11/25 07:49:19;;;;;;;106.38;25.85;;;;;;;;;;8266255;28;20050;-90
2022/11/25 07:53:23;;;;;;;113.07;24.92;;;;;;;;;;8266164;28;20053;-88
2022/11/25 07:57:26;;;;;;;102.20;25.02;;;;;;;;;;8265896;28;20058;-87
2022/11/25 08:01:29;;;;;;;116.70;25.00;;;;;;;;;;8265445;28;20042;-89
2022/11/25 08:05:33;;;;;;;118.55;29.35;;;;;;;;;;8265745;28;20518;-90
2022/11/25 08:09:37;;;;;;;122.32;26.58;;;;;;;;;;8265673;28;20521;-88
2022/11/25 08:13:40;;;;;;;110.20;27.30;;;;;;;;;;8265622;28;20046;-86
2022/11/25 08:17:43;;;;;;;109.75;26.40;;;;;;;;;;8265716;28;20696;-90
2022/11/25 08:21:47;;;;;;;112.45;23.77;;;;;;;;;;8265767;28;20105;-89
2022/11/25 08:25:51;;;;;;;100.03;23.50;;;;;;;;;;8266010;28;20442;-89
2022/11/25 08:29:53;;;;;;;89.45;24.25;;;;;;;;;;8265476;28;20050;-88
2022/11/25 08:33:57;;;;;;;90.40;25.85;;;;;;;;;;8266301;28;20046;-88
2022/11/25 08:37:59;;;;;;;105.82;26.65;;;;;;;;;;8266210;28;20050;-90
2022/11/25 08:42:05;;;;;;;116.75;33.35;;;;;;;;;;8266042;28;20096;-89
2022/11/25 08:46:09;;;;;;;98.55;24.52;;;;;;;;;;8267369;28;20470;-88
2022/11/25 08:50:14;;;;;;;104.85;30.38;;;;;;;;;;8259902;28;20051;-88
2022/11/25 08:54:17;;;;;;;83.70;24.88;;;;;;;;;;8254592;28;20089;-89
2022/11/25 08:58:21;;;;;;;120.38;31.48;;;;;;;;;;8250143;28;20085;-86
2022/11/25 09:02:24;;;;;;;116.40;29.85;;;;;;;;;;8271598;28;20054;-89
2022/11/25 09:06:28;;;;;;;107.82;29.25;;;;;;;;;;8271301;28;20042;-91
2022/11/25 09:10:32;;;;;;;87.95;26.40;;;;;;;;;;8254538;28;20064;-89
2022/11/25 09:14:36;;;;;;;99.55;26.73;;;;;;;;;;8271243;28;20043;-92
2022/11/25 09:18:39;;;;;;;100.07;23.73;;;;;;;;;;8271561;28;20129;-90
2022/11/25 09:22:42;;;;;;;85.38;27.45;;;;;;;;;;8271441;28;20053;-91
2022/11/25 09:26:45;;;;;;;80.55;24.73;;;;;;;;;;8254516;28;20054;-90
2022/11/25 09:30:50;;;;;;;85.85;24.70;;;;;;;;;;8271695;28;20050;-92
2022/11/25 09:34:53;;;;;;;108.80;33.72;;;;;;;;;;8271203;28;20046;-92
2022/11/25 09:38:56;;;;;;;72.07;22.75;;;;;;;;;;8257264;28;20056;-87
2022/11/25 09:47:37;;;;;;;75.13;24.95;;;;;;;;;;8257034;28;20050;-90
2022/11/25 09:51:55;;;;;;;74.10;22.90;;;;;;;;;;8271067;28;20096;-91
2022/11/25 09:56:03;;;;;;;93.57;30.75;;;;;;;;;;8270698;28;20480;-92
2022/11/25 10:00:11;;;;;;;83.10;27.70;;;;;;;;;;8270323;28;20073;-90
2022/11/25 10:04:20;;;;;;;66.53;22.02;;;;;;;;;;8270983;28;20077;-91
2022/11/25 10:08:26;;;;;;;77.65;22.88;;;;;;;;;;8269729;28;20069;-90
2022/11/25 10:12:32;;;;;;;53.05;18.27;;;;;;;;;;8270003;28;20046;-90
2022/11/25 10:16:42;;;;;;;74.13;22.00;;;;;;;;;;8270357;28;20050;-89
2022/11/25 10:20:49;;;;;;;68.72;21.52;;;;;;;;;;8270180;28;20441;-92
2022/11/25 10:24:55;;;;;;;75.47;23.17;;;;;;;;;;8270006;28;20043;-92
2022/11/25 10:29:17;;;;;;;67.90;21.90;;;;;;;;;;8249777;28;20058;-84
2022/11/25 10:33:22;;;;;;;74.00;22.20;;;;;;;;;;8265275;28;20052;-91
2022/11/25 10:37:31;;;;;;;62.22;19.85;;;;;;;;;;8269548;28;20057;-91
2022/11/25 10:41:38;;;;;;;68.03;20.70;;;;;;;;;;8269308;28;20057;-89
2022/11/25 10:45:49;;;;;;;63.33;21.17;;;;;;;;;;8269609;28;20426;-92
2022/11/25 10:50:03;;;;;;;111.45;29.55;;;;;;;;;;8268899;28;20046;-92
2022/11/25 10:54:13;;;;;;;68.45;20.60;;;;;;;;;;8266762;28;20096;-90
2022/11/25 10:58:26;;;;;;;90.70;27.90;;;;;;;;;;8265750;28;20038;-91
2022/11/25 11:02:30;;;;;;;112.60;29.80;;;;;;;;;;8268081;28;20058;-89
2022/11/25 11:06:37;;;;;;;78.47;23.20;;;;;;;;;;8268323;28;20047;-92
2022/11/25 11:10:41;;;;;;;137.27;40.88;;;;;;;;;;8268494;28;20501;-91
2022/11/25 11:14:44;;;;;;;143.38;39.35;;;;;;;;;;8267930;28;20046;-88
2022/11/25 11:18:46;;;;;;;191.35;50.65;;;;;;;;;;8268149;28;20540;-91
2022/11/25 11:22:55;;;;;;;136.38;34.78;;;;;;;;;;8268135;28;20105;-93
2022/11/25 11:27:07;;;;;;;91.35;27.25;;;;;;;;;;8268194;28;20051;-86
2022/11/25 11:31:17;;;;;;;;;;;;;;;;;;8268622;28;20043;-93
2022/11/25 11:35:24;;;;;;;130.05;32.10;;;;;;;;;;8268112;28;19925;-89
2022/11/25 11:39:45;;;;;;;139.18;37.67;;;;;;;;;;8267642;28;20050;-90
2022/11/25 11:44:03;;;;;;;144.50;37.65;;;;;;;;;;8268161;28;20105;-90
2022/11/25 11:48:16;;;;;;;53.88;19.98;;;;;;;;;;8267779;28;20121;-92
2022/11/25 11:52:33;;;;;;;71.10;22.30;;;;;;;;;;8270340;28;20085;-93
2022/11/25 11:56:40;;;;;;;72.65;22.55;;;;;;;;;;8269358;28;20042;-85
2022/11/25 12:00:51;;;;;;;87.57;27.58;;;;;;;;;;8268313;28;20058;-95
2022/11/25 12:05:02;;;;;;;95.35;27.58;;;;;;;;;;8268330;28;20058;-93
2022/11/25 12:09:10;;;;;;;139.00;36.90;;;;;;;;;;8268908;28;20065;-93
2022/11/25 12:13:19;;;;;;;49.58;18.85;;;;;;;;;;8268378;28;20509;-92
2022/11/25 12:17:30;;;;;;;137.38;36.10;;;;;;;;;;8268481;28;20043;-93
2022/11/25 12:21:41;;;;;;;94.25;28.38;;;;;;;;;;8270040;28;20048;-91
2022/11/25 12:25:47;;;;;;;89.10;28.10;;;;;;;;;;8273803;28;20505;-92
2022/11/25 12:29:56;;;;;;;62.33;22.35;;;;;;;;;;8273821;28;20050;-93
2022/11/25 12:34:05;;;;;;;108.22;27.33;;;;;;;;;;8260904;28;20046;-91
2022/11/25 12:38:19;;;;;;;142.55;37.70;;;;;;;;;;8259724;28;20402;-93
2022/11/25 12:42:25;;;;;;;267.67;61.65;;;;;;;;;;8259704;28;20469;-92
2022/11/25 12:46:37;;;;;;;130.30;34.72;;;;;;;;;;8259137;28;20050;-90
2022/11/25 12:50:53;;;;;;;138.65;34.28;;;;;;;;;;8273342;28;20100;-87
2022/11/25 12:55:12;;;;;;;71.30;23.67;;;;;;;;;;8256948;28;20073;-92
2022/11/25 12:59:35;;;;;;;79.60;24.40;;;;;;;;;;8259967;28;20398;-93
2022/11/25 13:04:14;;;;;;;108.85;27.85;;;;;;;;;;8262406;28;20058;-93
2022/11/25 13:08:30;;;;;;;109.97;28.05;;;;;;;;;;8272260;28;20056;-89
2022/11/25 13:12:46;;;;;;;65.53;20.73;;;;;;;;;;8273427;28;20052;-89
2022/11/25 13:16:49;;;;;;;135.40;35.90;;;;;;;;;;8268678;28;20518;-92
2022/11/25 13:20:53;;;;;;;264.13;58.80;;;;;;;;;;8264526;28;20047;-95
2022/11/25 13:24:58;;;;;;;150.27;38.30;;;;;;;;;;8275574;28;20127;-88
2022/11/25 13:29:06;;;;;;;114.78;34.00;;;;;;;;;;8276394;28;20073;-92
2022/11/25 13:33:40;;;;;;;55.15;19.90;;;;;;;;;;8275177;28;20058;-92
2022/11/25 13:37:43;;;;;;;61.40;19.45;;;;;;;;;;8242329;28;20054;-90
2022/11/25 13:42:02;;;;;;;57.78;21.48;;;;;;;;;;8257657;28;20050;-89
2022/11/25 13:46:06;;;;;;;75.13;25.90;;;;;;;;;;8259246;28;20046;-94
2022/11/25 13:50:22;;;;;;;86.88;28.48;;;;;;;;;;8249596;28;20058;-93
2022/11/25 13:54:31;;;;;;;78.18;24.65;;;;;;;;;;8256681;28;20078;-94
2022/11/25 13:58:35;;;;;;;81.05;25.13;;;;;;;;;;8268092;28;20042;-94
2022/11/25 14:02:48;;;;;;;92.57;25.90;;;;;;;;;;8272199;28;20137;-89
2022/11/25 14:07:20;;;;;;;87.95;27.33;;;;;;;;;;8246787;28;20112;-90
2022/11/25 14:11:55;;;;;;;58.95;18.27;;;;;;;;;;8271369;28;20042;-92
2022/11/25 14:16:20;;;;;;;74.68;26.80;;;;;;;;;;8271415;28;20105;-94
2022/11/25 14:20:33;;;;;;;55.20;20.27;;;;;;;;;;8271576;28;20478;-91
2022/11/25 14:24:38;;;;;;;68.10;22.10;;;;;;;;;;8258211;28;20493;-94
2022/11/25 14:28:47;;;;;;;84.72;29.08;;;;;;;;;;8271636;28;20049;-93
2022/11/25 14:32:56;;;;;;;88.72;36.05;;;;;;;;;;8271364;28;20054;-92
2022/11/25 14:37:07;;;;;;;87.28;31.38;;;;;;;;;;8272843;28;20053;-92
2022/11/25 14:41:17;;;;;;;78.43;30.73;;;;;;;;;;8272208;28;20046;-86
2022/11/25 14:45:23;;;;;;;78.93;30.83;;;;;;;;;;8256261;28;20077;-92
2022/11/25 14:49:44;;;;;;;90.75;31.08;;;;;;;;;;8270953;28;20065;-93
2022/11/25 14:53:49;;;;;;;73.20;24.42;;;;;;;;;;8254624;28;20049;-94
2022/11/25 14:57:53;;;;;;;63.25;21.45;;;;;;;;;;8244154;28;20051;-94
2022/11/25 15:01:55;;;;;;;69.70;21.40;;;;;;;;;;8259592;28;20053;-85
2022/11/25 15:06:03;;;;;;;63.85;22.10;;;;;;;;;;8258457;28;20502;-91
2022/11/25 15:10:28;;;;;;;78.75;26.60;;;;;;;;;;8253049;28;20042;-87
2022/11/25 15:14:33;;;;;;;71.97;24.92;;;;;;;;;;8245328;28;20088;-89
2022/11/25 15:18:38;;;;;;;83.47;27.30;;;;;;;;;;8252667;28;20442;-87
2022/11/25 15:22:46;;;;;;;120.18;43.35;;;;;;;;;;8266127;28;20101;-86
2022/11/25 15:26:51;;;;;;;102.50;37.10;;;;;;;;;;8243093;28;20042;-90
2022/11/25 15:30:58;;;;;;;82.97;25.02;;;;;;;;;;8259621;28;20057;-88
2022/11/25 15:35:02;;;;;;;96.15;33.08;;;;;;;;;;8256977;28;20414;-90
2022/11/25 15:39:23;;;;;;;79.43;25.02;;;;;;;;;;8260524;28;20050;-91
2022/11/25 15:43:28;;;;;;;147.32;44.42;;;;;;;;;;8265118;28;20527;-88
2022/11/25 15:47:32;;;;;;;117.68;40.10;;;;;;;;;;8256837;28;20050;-88
2022/11/25 15:51:41;;;;;;;124.03;45.80;;;;;;;;;;8251299;28;20486;-89
2022/11/25 15:55:46;;;;;;;139.57;46.85;;;;;;;;;;8257228;28;20042;-85
2022/11/25 16:00:03;;;;;;;92.13;29.23;;;;;;;;;;8259529;28;20107;-87
2022/11/25 16:04:11;;;;;;;89.45;29.23;;;;;;;;;;8250765;28;20468;-88
2022/11/25 16:08:35;;;;;;;99.30;25.10;;;;;;;;;;8243178;28;20038;-92
2022/11/25 16:12:45;;;;;;;149.98;37.20;;;;;;;;;;8246404;28;20610;-85
2022/11/25 16:16:51;;;;;;;110.38;35.05;;;;;;;;;;8249247;28;20047;-89
2022/11/25 16:21:00;;;;;;;85.72;24.08;;;;;;;;;;8251733;28;20139;-87
2022/11/25 16:25:10;;;;;;;118.57;34.50;;;;;;;;;;8254735;28;20074;-93
2022/11/25 16:29:17;;;;;;;140.10;36.25;;;;;;;;;;8252609;28;20043;-88
2022/11/25 16:33:20;;;;;;;95.55;25.15;;;;;;;;;;8249660;28;20050;-85
2022/11/25 16:37:23;;;;;;;111.57;21.00;;;;;;;;;;8263972;28;20053;-90
2022/11/25 16:41:27;;;;;;;126.05;33.28;;;;;;;;;;8243786;28;20096;-88
2022/11/25 16:45:30;;;;;;;236.25;46.50;;;;;;;;;;8251471;28;20118;-94
2022/11/25 16:49:33;;;;;;;230.80;68.82;;;;;;;;;;8255469;28;20126;-90
2022/11/25 16:53:37;;;;;;;427.02;108.93;;;;;;;;;;8255177;28;20054;-94
2022/11/25 16:57:41;;;;;;;437.73;122.85;;;;;;;;;;8236681;28;20089;-85
2022/11/25 17:01:45;;;;;;;350.20;92.15;;;;;;;;;;8252742;28;20116;-93
2022/11/25 17:05:48;;;;;;;234.70;72.65;;;;;;;;;;8247466;28;20137;-91
2022/11/25 17:09:50;;;;;;;320.20;67.43;;;;;;;;;;8262162;28;20054;-89
2022/11/25 17:13:54;;;;;;;244.50;56.45;;;;;;;;;;8270344;28;20074;-89
2022/11/25 17:18:00;;;;;;;161.77;36.95;;;;;;;;;;8255340;28;20038;-93
2022/11/25 17:22:02;;;;;;;131.40;34.33;;;;;;;;;;8247552;28;20123;-93
2022/11/25 17:26:05;;;;;;;150.30;43.80;;;;;;;;;;8264380;28;20142;-89
2022/11/25 17:30:17;;;;;;;139.00;36.60;;;;;;;;;;8257504;28;20134;-93
2022/11/25 17:34:21;;;;;;;135.80;31.10;;;;;;;;;;8261930;28;20173;-91
2022/11/25 17:38:24;;;;;;;181.52;40.78;;;;;;;;;;8244948;28;20057;-89
2022/11/25 17:42:30;;;;;;;236.52;54.60;;;;;;;;;;8251264;28;20125;-92
2022/11/25 17:46:32;;;;;;;431.73;99.05;;;;;;;;;;8262356;28;20455;-87
2022/11/25 17:50:37;;;;;;;217.95;60.65;;;;;;;;;;8262161;28;20399;-91
2022/11/25 17:54:40;;;;;;;176.05;50.95;;;;;;;;;;8269200;28;20069;-93
2022/11/25 17:58:42;;;;;;;97.05;30.35;;;;;;;;;;8257622;28;20125;-91
2022/11/25 18:02:45;;;;;;;291.60;61.28;;;;;;;;;;8250709;28;20070;-88
2022/11/25 18:06:50;;;;;;;140.20;43.13;;;;;;;;;;8269389;28;20082;-92
2022/11/25 18:10:53;;;;;;;94.78;30.83;;;;;;;;;;8266892;28;20129;-90
2022/11/25 18:14:56;;;;;;;161.13;44.03;;;;;;;;;;8265980;28;20409;-90
2022/11/25 18:19:00;;;;;;;290.27;104.75;;;;;;;;;;8263481;28;20060;-86
2022/11/25 18:23:04;;;;;;;89.78;25.13;;;;;;;;;;8245103;28;20141;-93
2022/11/25 18:27:10;;;;;;;147.93;51.63;;;;;;;;;;8250818;28;20040;-85
2022/11/25 18:31:13;;;;;;;132.15;44.40;;;;;;;;;;8254892;28;20364;-93
2022/11/25 18:35:19;;;;;;;205.25;64.97;;;;;;;;;;8265563;28;20590;-94
2022/11/25 18:39:24;;;;;;;125.68;37.60;;;;;;;;;;8254568;28;20398;-93
2022/11/25 18:43:28;;;;;;;124.05;38.75;;;;;;;;;;8240902;28;20133;-91
2022/11/25 18:47:31;;;;;;;186.20;58.75;;;;;;;;;;8266347;28;20401;-87
2022/11/25 18:51:34;;;;;;;210.43;80.10;;;;;;;;;;8267913;28;20042;-90
2022/11/25 18:55:38;;;;;;;204.65;70.00;;;;;;;;;;8267956;28;20101;-87
2022/11/25 18:59:44;;;;;;;184.70;61.35;;;;;;;;;;8263049;28;20109;-93
2022/11/25 19:03:48;;;;;;;203.65;66.97;;;;;;;;;;8261093;28;20058;-93
2022/11/25 19:07:52;;;;;;;178.45;56.58;;;;;;;;;;8262628;28;20051;-92
2022/11/25 19:11:57;;;;;;;184.27;55.55;;;;;;;;;;8266098;28;20066;-93
2022/11/25 19:16:05;;;;;;;133.00;45.78;;;;;;;;;;8266841;28;20509;-88
2022/11/25 19:20:15;;;;;;;171.05;51.30;;;;;;;;;;8242154;28;20137;-94
2022/11/25 19:24:21;;;;;;;132.30;40.97;;;;;;;;;;8268215;28;20046;-94
2022/11/25 19:28:25;;;;;;;114.68;38.78;;;;;;;;;;8262740;28;20038;-87
2022/11/25 19:32:31;;;;;;;129.15;39.20;;;;;;;;;;8267550;28;20050;-92
2022/11/25 19:36:36;;;;;;;124.40;37.78;;;;;;;;;;8256948;28;20479;-85
2022/11/25 19:40:40;;;;;;;123.72;37.20;;;;;;;;;;8250954;28;20093;-86
2022/11/25 19:44:45;;;;;;;461.88;96.85;;;;;;;;;;8248961;28;20043;-86
2022/11/25 19:48:54;;;;;;;278.38;68.57;;;;;;;;;;8266792;28;20054;-94
2022/11/25 19:52:57;;;;;;;264.42;67.38;;;;;;;;;;8268154;28;20054;-94
2022/11/25 19:57:00;;;;;;;127.15;36.47;;;;;;;;;;8266195;28;20089;-85
2022/11/25 20:01:05;;;;;;;194.68;49.50;;;;;;;;;;8266493;28;20050;-90
2022/11/25 20:05:09;;;;;;;293.58;68.32;;;;;;;;;;8238701;28;20491;-92
2022/11/25 20:09:13;;;;;;;165.18;41.80;;;;;;;;;;8239627;28;20055;-88
2022/11/25 20:13:18;;;;;;;132.75;34.47;;;;;;;;;;8240499;28;20035;-93
2022/11/25 20:17:26;;;;;;;141.88;34.70;;;;;;;;;;8232654;28;20101;-86
2022/11/25 20:21:33;;;;;;;277.02;60.25;;;;;;;;;;8233227;28;20050;-86
2022/11/25 20:25:40;;;;;;;336.92;83.65;;;;;;;;;;8234697;28;20070;-91
2022/11/25 20:29:44;;;;;;;222.85;49.53;;;;;;;;;;8235042;28;20047;-91
2022/11/25 20:33:48;;;;;;;191.00;47.08;;;;;;;;;;8253886;28;20058;-94
2022/11/25 20:37:59;;;;;;;137.65;35.58;;;;;;;;;;8267076;28;20054;-86
2022/11/25 20:42:01;;;;;;;117.60;32.03;;;;;;;;;;8268168;28;20549;-86
2022/11/25 20:46:05;;;;;;;117.82;28.88;;;;;;;;;;8264307;28;20051;-91
2022/11/25 20:50:12;;;;;;;122.10;28.95;;;;;;;;;;8268341;28;20060;-90
2022/11/25 20:54:16;;;;;;;135.10;31.90;;;;;;;;;;8260973;28;20050;-94
2022/11/25 20:58:22;;;;;;;139.77;38.38;;;;;;;;;;8273127;28;20065;-95
2022/11/25 21:02:25;;;;;;;133.20;35.75;;;;;;;;;;8259848;28;20066;-95
2022/11/25 21:06:31;;;;;;;365.23;96.75;;;;;;;;;;8269822;28;20065;-96
2022/11/25 21:10:35;;;;;;;296.20;77.65;;;;;;;;;;8250680;28;20050;-95
2022/11/25 21:14:37;;;;;;;311.52;85.65;;;;;;;;;;8265681;28;20096;-85
2022/11/25 21:18:41;;;;;;;262.83;71.78;;;;;;;;;;8266496;28;20133;-91
2022/11/25 21:22:48;;;;;;;187.35;49.35;;;;;;;;;;8244803;28;20101;-89
2022/11/25 21:26:52;;;;;;;124.63;33.60;;;;;;;;;;8264563;28;20045;-93
2022/11/25 21:30:54;;;;;;;128.27;29.77;;;;;;;;;;8259391;28;20046;-89
2022/11/25 21:34:57;;;;;;;85.28;27.35;;;;;;;;;;8272410;28;20049;-90
2022/11/25 21:39:04;;;;;;;109.90;31.15;;;;;;;;;;8259897;28;20133;-89
2022/11/25 21:43:17;;;;;;;162.48;46.47;;;;;;;;;;8253116;28;20050;-86
2022/11/25 21:47:21;;;;;;;129.05;37.10;;;;;;;;;;8264602;28;20046;-89
2022/11/25 21:51:24;;;;;;;157.93;46.25;;;;;;;;;;8271164;28;20054;-89
2022/11/25 21:55:28;;;;;;;136.50;32.47;;;;;;;;;;8270759;28;20102;-94
2022/11/25 21:59:31;;;;;;;159.15;45.85;;;;;;;;;;8255905;28;20050;-86
2022/11/25 22:03:34;;;;;;;147.45;36.72;;;;;;;;;;8260434;28;20058;-93
2022/11/25 22:07:36;;;;;;;103.00;28.55;;;;;;;;;;8258767;28;20055;-94
2022/11/25 22:11:43;;;;;;;101.05;27.83;;;;;;;;;;8257864;28;20065;-87
2022/11/25 22:15:46;;;;;;;124.22;30.00;;;;;;;;;;8272015;28;20042;-94
2022/11/25 22:19:48;;;;;;;95.93;25.45;;;;;;;;;;8256969;28;20077;-93
2022/11/25 22:23:51;;;;;;;95.28;25.52;;;;;;;;;;8264140;28;20483;-91
2022/11/25 22:27:55;;;;;;;87.90;25.63;;;;;;;;;;8250285;28;20061;-92
2022/11/25 22:31:58;;;;;;;75.47;24.55;;;;;;;;;;8266849;28;20125;-95
2022/11/25 22:36:01;;;;;;;83.05;24.70;;;;;;;;;;8246626;28;20050;-90
2022/11/25 22:40:04;;;;;;;94.07;25.33;;;;;;;;;;8269857;28;20134;-95
2022/11/25 22:44:17;;;;;;;103.22;29.05;;;;;;;;;;8256620;28;20046;-94
2022/11/25 22:48:27;;;;;;;96.90;28.63;;;;;;;;;;8270415;28;20732;-89
2022/11/25 22:52:32;;;;;;;120.53;38.53;;;;;;;;;;8255949;28;20045;-95
2022/11/25 22:56:35;;;;;;;137.60;43.30;;;;;;;;;;8270466;28;20061;-92
2022/11/25 23:00:43;;;;;;;96.30;28.73;;;;;;;;;;8258293;28;20054;-89
2022/11/25 23:04:51;;;;;;;161.90;43.03;;;;;;;;;;8259780;28;20065;-93
2022/11/25 23:08:53;;;;;;;103.72;28.58;;;;;;;;;;8265633;28;20057;-86
2022/11/25 23:12:56;;;;;;;87.13;26.08;;;;;;;;;;8268565;28;20102;-92
2022/11/25 23:17:00;;;;;;;92.63;26.63;;;;;;;;;;8268934;28;20078;-89
2022/11/25 23:21:02;;;;;;;83.57;25.73;;;;;;;;;;8268270;28;20890;-93
2022/11/25 23:25:13;;;;;;;91.50;25.90;;;;;;;;;;8241583;28;20039;-96
2022/11/25 23:29:19;;;;;;;90.03;27.53;;;;;;;;;;8269232;28;20450;-89
2022/11/25 23:33:30;;;;;;;86.85;26.52;;;;;;;;;;8267399;28;20046;-91
2022/11/25 23:37:32;;;;;;;137.90;41.67;;;;;;;;;;8236230;28;20050;-87
2022/11/25 23:41:35;;;;;;;99.40;29.17;;;;;;;;;;8248079;28;20073;-94
2022/11/25 23:45:47;;;;;;;140.25;36.35;;;;;;;;;;8237519;28;20073;-94
2022/11/25 23:49:56;;;;;;;156.82;38.95;;;;;;;;;;8260499;28;20414;-90
2022/11/25 23:53:59;;;;;;;107.63;28.75;;;;;;;;;;8266225;28;20042;-94